Terminal Aerodrome Forecast
Issued by NWS

Home | Current Version | Previous Version | Text Only | Print | Product List | Glossary On
Versions: 1 2 3 4 5 6 7 8 9 10 11 12 13 14 15 16
300
FTUS46 KSTO 122328
TAFSCK
TAF
KSCK 122328Z 1300/1324 VRB03KT 5SM HZ SCT250
     FM130600 00000KT 4SM BR SCT250
     FM131000 00000KT 2SM BR SCT005
      TEMPO 1312/1316 1/2SM FG OVC002
     FM131800 32010KT P6SM SKC=

USA.gov is the U.S. government's official web portal to all federal, state and local government web resources and services.